createdAt,value
2022-12-31T00:02:10.622Z,10.02
2022-12-31T00:04:58.750Z,9.96
2022-12-31T00:07:46.758Z,9.90
2022-12-31T00:10:41.281Z,9.91
2022-12-31T00:13:30.622Z,9.91
2022-12-31T00:16:21.065Z,9.87
2022-12-31T00:19:10.768Z,9.92
2022-12-31T00:21:58.503Z,9.91
2022-12-31T00:24:46.469Z,9.89
2022-12-31T00:27:34.644Z,9.89
2022-12-31T00:30:23.560Z,9.88
2022-12-31T00:33:11.022Z,9.87
2022-12-31T00:36:09.463Z,9.85
2022-12-31T00:38:58.700Z,9.85
2022-12-31T00:41:46.404Z,9.93
2022-12-31T00:44:34.422Z,9.90
2022-12-31T00:47:26.349Z,9.88
2022-12-31T00:50:15.275Z,9.88
2022-12-31T00:53:03.125Z,9.91
2022-12-31T00:55:51.076Z,9.89
2022-12-31T00:58:39.033Z,9.93
2022-12-31T01:01:29.125Z,9.98
2022-12-31T01:04:21.731Z,10.01
2022-12-31T01:07:12.375Z,10.07
2022-12-31T01:10:01.981Z,10.18
2022-12-31T01:12:52.633Z,10.15
2022-12-31T01:15:41.187Z,10.10
2022-12-31T01:18:31.999Z,10.37
2022-12-31T01:21:22.363Z,10.42
2022-12-31T01:24:11.723Z,10.44
2022-12-31T01:27:01.770Z,10.37
2022-12-31T01:29:49.803Z,10.40
2022-12-31T01:32:39.763Z,10.39
2022-12-31T01:35:27.681Z,10.43
2022-12-31T01:38:16.891Z,10.40
2022-12-31T01:41:05.604Z,10.45
2022-12-31T01:43:55.949Z,10.52
2022-12-31T01:46:49.939Z,10.49
2022-12-31T01:49:42.173Z,10.53
2022-12-31T01:52:32.012Z,10.60
2022-12-31T01:55:27.086Z,10.68
2022-12-31T01:58:19.149Z,10.77
2022-12-31T02:01:08.897Z,10.78
2022-12-31T02:03:58.251Z,10.78
2022-12-31T02:06:50.599Z,10.78
2022-12-31T02:09:41.590Z,10.76
2022-12-31T02:12:30.515Z,10.87
2022-12-31T02:15:18.657Z,10.82
2022-12-31T02:18:18.285Z,10.72
2022-12-31T02:21:36.147Z,10.78
2022-12-31T02:25:12.398Z,10.68
2022-12-31T02:28:17.117Z,10.68
2022-12-31T02:31:16.874Z,10.69
2022-12-31T02:34:09.497Z,10.75
2022-12-31T02:37:01.167Z,10.67
2022-12-31T02:39:50.221Z,10.72
2022-12-31T02:42:37.870Z,10.74
2022-12-31T02:45:32.836Z,10.84
2022-12-31T02:48:41.147Z,10.88
2022-12-31T02:51:39.845Z,10.91
2022-12-31T02:54:34.867Z,10.89
2022-12-31T02:57:27.762Z,10.88
2022-12-31T03:00:35.172Z,10.85
2022-12-31T03:03:25.624Z,10.87
2022-12-31T03:06:14.439Z,10.92
2022-12-31T03:09:14.765Z,10.86
2022-12-31T03:12:21.623Z,10.91
2022-12-31T03:15:20.674Z,10.91
2022-12-31T03:18:11.069Z,10.88
2022-12-31T03:21:25.875Z,10.80
2022-12-31T03:24:31.193Z,10.80
2022-12-31T03:27:19.022Z,10.80
2022-12-31T03:30:08.612Z,10.81
2022-12-31T03:32:57.380Z,10.78
2022-12-31T03:35:46.901Z,10.76
2022-12-31T03:38:36.590Z,10.74
2022-12-31T03:41:24.479Z,10.72
2022-12-31T03:44:12.056Z,10.76
2022-12-31T03:47:02.271Z,10.73
2022-12-31T03:49:49.839Z,10.67
2022-12-31T03:52:37.771Z,10.61
2022-12-31T03:55:27.417Z,10.56
2022-12-31T03:58:15.292Z,10.58
2022-12-31T04:01:03.303Z,10.56
2022-12-31T04:03:51.102Z,10.61
2022-12-31T04:06:38.837Z,10.62
2022-12-31T04:09:26.809Z,10.59
2022-12-31T04:12:16.041Z,10.66
2022-12-31T04:15:03.904Z,10.64
2022-12-31T04:17:51.693Z,10.59
2022-12-31T04:20:39.754Z,10.53
2022-12-31T04:23:27.580Z,10.55
2022-12-31T04:26:15.195Z,10.55
2022-12-31T04:29:04.657Z,10.56
2022-12-31T04:31:53.733Z,10.65
2022-12-31T04:34:41.673Z,10.78
2022-12-31T04:37:29.680Z,10.81
2022-12-31T04:40:18.929Z,10.92
2022-12-31T04:43:06.985Z,10.90
2022-12-31T04:45:56.455Z,10.95
2022-12-31T04:48:44.679Z,10.99
2022-12-31T04:51:37.476Z,11.02
2022-12-31T04:54:25.353Z,10.94
2022-12-31T04:57:13.250Z,10.94
2022-12-31T05:00:00.869Z,11.08
2022-12-31T05:02:50.455Z,11.15
2022-12-31T05:05:42.677Z,11.09
2022-12-31T05:08:31.045Z,11.08
2022-12-31T05:11:18.953Z,11.01
2022-12-31T05:14:06.567Z,10.97
2022-12-31T05:16:54.938Z,10.82
2022-12-31T05:19:43.992Z,10.76
2022-12-31T05:22:31.787Z,10.68
2022-12-31T05:25:19.789Z,10.63
2022-12-31T05:28:08.021Z,10.65
2022-12-31T05:30:56.370Z,10.77
2022-12-31T05:33:43.965Z,10.73
2022-12-31T05:36:33.409Z,11.03
2022-12-31T05:39:21.353Z,11.07
2022-12-31T05:42:09.333Z,11.10
2022-12-31T05:44:57.237Z,11.10
2022-12-31T05:47:45.104Z,11.04
2022-12-31T05:50:33.297Z,11.06
2022-12-31T05:53:22.798Z,11.09
2022-12-31T05:56:11.170Z,11.01
2022-12-31T05:58:58.974Z,10.98
2022-12-31T06:01:47.142Z,11.01
2022-12-31T06:04:35.184Z,10.98
2022-12-31T06:07:23.052Z,10.91
2022-12-31T06:10:12.456Z,10.93
2022-12-31T06:13:00.387Z,10.87
2022-12-31T06:15:48.317Z,10.87
2022-12-31T06:18:36.543Z,10.95
2022-12-31T06:21:24.148Z,10.93
2022-12-31T06:24:12.234Z,10.93
2022-12-31T06:27:01.732Z,10.89
2022-12-31T06:29:52.182Z,10.93
2022-12-31T06:32:40.740Z,10.92
2022-12-31T06:35:28.493Z,10.82
2022-12-31T06:38:16.268Z,10.75
2022-12-31T06:41:05.089Z,10.73
2022-12-31T06:43:54.491Z,10.68
2022-12-31T06:46:42.336Z,10.67
2022-12-31T06:49:30.129Z,10.66
2022-12-31T06:52:18.288Z,10.66
2022-12-31T06:55:07.566Z,10.86
2022-12-31T06:57:56.034Z,10.90
2022-12-31T07:00:57.296Z,10.94
2022-12-31T07:03:54.344Z,10.93
2022-12-31T07:06:49.729Z,10.97
2022-12-31T07:09:46.598Z,10.93
2022-12-31T07:12:49.619Z,10.92
2022-12-31T07:15:57.345Z,11.05
2022-12-31T07:18:51.052Z,11.06
2022-12-31T07:21:41.497Z,11.07
2022-12-31T07:24:29.893Z,11.02
2022-12-31T07:27:33.204Z,10.98
2022-12-31T07:30:24.130Z,10.92
2022-12-31T07:33:32.585Z,10.90
2022-12-31T07:36:36.255Z,10.92
2022-12-31T07:39:33.616Z,10.92
2022-12-31T07:42:30.426Z,10.90
2022-12-31T07:45:24.742Z,10.82
2022-12-31T07:48:23.215Z,10.82
2022-12-31T07:51:13.556Z,10.86
2022-12-31T07:54:04.663Z,10.87
2022-12-31T07:56:54.208Z,10.84
2022-12-31T07:59:52.761Z,10.80
2022-12-31T08:03:04.829Z,10.89
2022-12-31T08:06:01.497Z,10.94
2022-12-31T08:08:59.221Z,11.10
2022-12-31T08:11:56.474Z,11.22
2022-12-31T08:14:47.879Z,11.36
2022-12-31T08:17:45.479Z,11.50
2022-12-31T08:20:37.436Z,11.55
2022-12-31T08:23:33.918Z,11.69
2022-12-31T08:26:35.779Z,11.77
2022-12-31T08:29:37.203Z,11.84
2022-12-31T08:32:32.952Z,12.07
2022-12-31T08:35:33.558Z,12.03
2022-12-31T08:38:33.783Z,11.96
2022-12-31T08:41:29.809Z,11.95
2022-12-31T08:44:26.626Z,12.03
2022-12-31T08:47:32.879Z,12.03
2022-12-31T08:50:24.142Z,12.19
2022-12-31T08:53:12.817Z,12.24
2022-12-31T08:56:07.641Z,12.26
2022-12-31T08:59:05.106Z,12.21
2022-12-31T09:02:17.700Z,12.19
2022-12-31T09:05:17.344Z,12.23
2022-12-31T09:08:15.573Z,12.36
2022-12-31T09:11:14.284Z,12.40
2022-12-31T09:14:41.531Z,12.46
2022-12-31T09:17:45.224Z,12.56
2022-12-31T09:20:43.737Z,12.62
2022-12-31T09:23:32.592Z,12.63
2022-12-31T09:26:38.099Z,12.64
2022-12-31T09:29:39.202Z,12.64
2022-12-31T09:32:39.008Z,12.60
2022-12-31T09:35:36.443Z,12.69
2022-12-31T09:38:31.738Z,12.86
2022-12-31T09:41:41.020Z,12.86
2022-12-31T09:45:03.148Z,12.90
2022-12-31T09:48:43.770Z,13.15
2022-12-31T09:51:33.550Z,13.19
2022-12-31T09:54:39.442Z,13.24
2022-12-31T09:57:41.826Z,13.33
2022-12-31T10:00:37.329Z,13.34
2022-12-31T10:03:39.936Z,13.27
2022-12-31T10:06:34.119Z,13.30
2022-12-31T10:09:46.149Z,13.32
2022-12-31T10:12:59.806Z,13.42
2022-12-31T10:16:13.093Z,13.53
2022-12-31T10:19:35.618Z,13.66
2022-12-31T10:22:49.495Z,13.75
2022-12-31T10:26:07.689Z,13.82
2022-12-31T10:29:00.929Z,13.85
2022-12-31T10:31:59.314Z,13.85
2022-12-31T10:35:14.224Z,13.85
2022-12-31T10:38:14.580Z,13.86
2022-12-31T10:41:41.583Z,13.83
2022-12-31T10:45:04.714Z,13.86
2022-12-31T10:48:28.475Z,13.96
2022-12-31T10:51:49.054Z,14.13
2022-12-31T10:55:09.031Z,14.24
2022-12-31T10:58:40.961Z,14.30
2022-12-31T11:01:42.654Z,14.34
2022-12-31T11:05:12.929Z,14.36
2022-12-31T11:08:26.323Z,14.42
2022-12-31T11:11:29.013Z,14.54
2022-12-31T11:14:29.513Z,14.51
2022-12-31T11:17:29.528Z,14.61
2022-12-31T11:20:34.968Z,14.69
2022-12-31T11:23:36.939Z,14.65
2022-12-31T11:26:38.558Z,14.76
2022-12-31T11:29:38.213Z,14.81
2022-12-31T11:32:41.136Z,14.80
2022-12-31T11:35:41.134Z,14.83
2022-12-31T11:38:34.334Z,14.85
2022-12-31T11:41:33.088Z,14.91
2022-12-31T11:44:37.092Z,14.93
2022-12-31T11:51:15.987Z,14.92
2022-12-31T11:54:37.505Z,14.92
2022-12-31T11:57:34.199Z,14.99
2022-12-31T12:00:24.599Z,15.17
2022-12-31T12:03:13.838Z,15.27
2022-12-31T12:06:01.818Z,15.40
2022-12-31T12:08:50.923Z,15.48
2022-12-31T12:11:40.485Z,15.53
2022-12-31T12:14:35.598Z,15.55
2022-12-31T12:17:32.310Z,15.59
2022-12-31T12:20:25.621Z,15.63
2022-12-31T12:23:21.386Z,15.77
2022-12-31T12:26:24.351Z,15.86
2022-12-31T12:29:17.736Z,15.91
2022-12-31T12:32:16.529Z,15.97
2022-12-31T12:35:15.837Z,15.99
2022-12-31T12:38:07.020Z,16.06
2022-12-31T12:40:57.866Z,16.20
2022-12-31T12:43:47.930Z,16.22
2022-12-31T12:46:43.610Z,16.27
2022-12-31T12:49:43.334Z,16.36
2022-12-31T12:53:08.310Z,16.39
2022-12-31T12:56:07.785Z,16.40
2022-12-31T12:59:19.515Z,16.47
2022-12-31T13:02:28.229Z,16.51
2022-12-31T13:05:28.450Z,16.59
2022-12-31T13:08:33.129Z,16.63
2022-12-31T13:11:32.473Z,16.69
2022-12-31T13:14:27.975Z,16.71
2022-12-31T13:17:48.284Z,16.78
2022-12-31T13:20:48.894Z,16.82
2022-12-31T13:23:44.172Z,16.84
2022-12-31T13:26:36.945Z,16.81
2022-12-31T13:29:29.612Z,16.80
2022-12-31T13:32:21.059Z,16.83
2022-12-31T13:35:26.061Z,16.78
2022-12-31T13:38:19.555Z,16.69
2022-12-31T13:41:13.320Z,16.68
2022-12-31T13:44:12.821Z,16.50
2022-12-31T13:47:09.716Z,16.46
2022-12-31T13:50:02.169Z,16.46
2022-12-31T13:52:55.477Z,16.44
2022-12-31T13:55:56.631Z,16.37
2022-12-31T13:58:55.512Z,16.31
2022-12-31T14:01:51.096Z,16.35
2022-12-31T14:04:43.567Z,16.25
2022-12-31T14:07:45.326Z,16.27
2022-12-31T14:10:46.037Z,16.22
2022-12-31T14:13:46.431Z,16.08
2022-12-31T14:16:41.647Z,16.05
2022-12-31T14:19:47.701Z,15.98
2022-12-31T14:22:41.993Z,15.93
2022-12-31T14:25:36.176Z,15.84
2022-12-31T14:28:29.974Z,15.78
2022-12-31T14:31:30.820Z,15.70
2022-12-31T14:34:26.701Z,15.63
2022-12-31T14:37:21.813Z,15.53
2022-12-31T14:40:20.884Z,15.44
2022-12-31T14:43:19.808Z,15.34
2022-12-31T14:46:17.495Z,15.23
2022-12-31T14:49:23.437Z,15.13
2022-12-31T14:52:24.016Z,15.02
2022-12-31T14:55:28.274Z,14.92
2022-12-31T14:58:28.043Z,14.74
2022-12-31T15:01:26.002Z,14.61
2022-12-31T15:04:17.099Z,14.50
2022-12-31T15:07:12.195Z,14.36
2022-12-31T15:10:11.952Z,14.28
2022-12-31T15:13:06.969Z,14.15
2022-12-31T15:16:17.697Z,14.00
2022-12-31T15:19:36.348Z,13.87
2022-12-31T15:22:37.367Z,13.71
2022-12-31T15:25:36.757Z,13.62
2022-12-31T15:28:42.863Z,13.51
2022-12-31T15:31:37.657Z,13.41
2022-12-31T15:34:34.979Z,13.15
2022-12-31T15:37:32.849Z,13.12
2022-12-31T15:40:26.201Z,12.89
2022-12-31T15:43:19.350Z,12.84
2022-12-31T15:46:21.160Z,12.87
2022-12-31T15:49:18.206Z,12.83
2022-12-31T15:52:15.418Z,12.77
2022-12-31T15:55:10.430Z,12.74
2022-12-31T15:58:05.079Z,12.68
2022-12-31T16:01:03.012Z,12.79
2022-12-31T16:03:55.611Z,12.85
2022-12-31T16:06:48.944Z,12.92
2022-12-31T16:09:41.970Z,12.92
2022-12-31T16:12:44.760Z,12.96
2022-12-31T16:15:37.641Z,12.90
2022-12-31T16:18:28.123Z,12.75
2022-12-31T16:21:28.694Z,12.61
2022-12-31T16:24:29.323Z,12.53
2022-12-31T16:27:19.292Z,12.40
2022-12-31T16:30:21.433Z,12.33
2022-12-31T16:33:15.777Z,12.15
2022-12-31T16:36:05.180Z,12.04
2022-12-31T16:39:01.334Z,11.97
2022-12-31T16:41:51.804Z,11.89
2022-12-31T16:44:42.307Z,11.73
2022-12-31T16:47:38.108Z,11.63
2022-12-31T16:50:27.173Z,11.60
2022-12-31T16:53:18.708Z,11.56
2022-12-31T16:56:09.815Z,11.49
2022-12-31T16:59:03.709Z,11.55
2022-12-31T17:01:56.048Z,11.48
2022-12-31T17:04:55.281Z,11.46
2022-12-31T17:07:44.732Z,11.37
2022-12-31T17:10:37.788Z,11.32
2022-12-31T17:13:29.834Z,11.28
2022-12-31T17:16:19.464Z,11.20
2022-12-31T17:19:09.168Z,11.16
2022-12-31T17:21:57.236Z,11.14
2022-12-31T17:24:47.945Z,11.07
2022-12-31T17:27:37.209Z,11.02
2022-12-31T17:30:40.151Z,10.96
2022-12-31T17:33:29.555Z,10.96
2022-12-31T17:36:27.669Z,10.90
2022-12-31T17:39:20.159Z,10.84
2022-12-31T17:42:09.433Z,10.77
2022-12-31T17:45:00.860Z,10.74
2022-12-31T17:47:51.006Z,10.73
2022-12-31T17:50:49.472Z,10.69
2022-12-31T17:53:38.806Z,10.71
2022-12-31T17:56:26.699Z,10.70
2022-12-31T17:59:18.861Z,10.70
2022-12-31T18:02:12.493Z,10.66
2022-12-31T18:05:00.647Z,10.66
2022-12-31T18:07:48.716Z,10.65
2022-12-31T18:10:40.696Z,10.60
2022-12-31T18:13:29.392Z,10.55
2022-12-31T18:16:17.734Z,10.48
2022-12-31T18:19:23.651Z,10.43
2022-12-31T18:22:19.547Z,10.37
2022-12-31T18:25:09.019Z,10.29
2022-12-31T18:27:57.970Z,10.25
2022-12-31T18:30:47.442Z,10.20
2022-12-31T18:33:35.215Z,10.15
2022-12-31T18:36:24.373Z,10.08
2022-12-31T18:39:12.098Z,10.05
2022-12-31T18:42:00.284Z,9.97
2022-12-31T18:44:49.197Z,9.92
2022-12-31T18:47:37.945Z,9.88
2022-12-31T18:50:26.302Z,9.82
2022-12-31T18:53:18.178Z,9.78
2022-12-31T18:56:06.453Z,9.74
2022-12-31T18:58:54.568Z,9.69
2022-12-31T19:01:44.230Z,9.65
2022-12-31T19:04:32.412Z,9.61
2022-12-31T19:07:20.300Z,9.59
2022-12-31T19:10:08.534Z,9.57
2022-12-31T19:12:56.527Z,9.58
2022-12-31T19:15:48.749Z,9.59
2022-12-31T19:18:38.636Z,9.64
2022-12-31T19:21:26.391Z,9.71
2022-12-31T19:24:17.881Z,9.83
2022-12-31T19:27:05.616Z,10.18
2022-12-31T19:29:53.345Z,10.24
2022-12-31T19:32:41.302Z,10.39
2022-12-31T19:35:30.839Z,10.30
2022-12-31T19:38:21.531Z,10.39
2022-12-31T19:41:15.703Z,10.42
2022-12-31T19:44:04.045Z,10.45
2022-12-31T19:46:51.896Z,10.44
2022-12-31T19:49:39.979Z,10.46
2022-12-31T19:52:29.188Z,10.42
2022-12-31T19:55:19.668Z,10.36
2022-12-31T19:58:08.230Z,10.36
2022-12-31T20:01:02.357Z,10.36
2022-12-31T20:03:51.102Z,10.40
2022-12-31T20:06:38.897Z,10.29
2022-12-31T20:09:28.101Z,10.22
2022-12-31T20:12:16.257Z,10.15
2022-12-31T20:15:04.397Z,10.02
2022-12-31T20:17:52.333Z,10.05
2022-12-31T20:20:51.635Z,10.03
2022-12-31T20:23:43.064Z,9.97
2022-12-31T20:26:34.341Z,9.97
2022-12-31T20:29:22.359Z,10.00
2022-12-31T20:32:11.556Z,9.88
2022-12-31T20:34:59.808Z,9.94
2022-12-31T20:37:47.959Z,9.96
2022-12-31T20:40:36.626Z,9.90
2022-12-31T20:43:31.916Z,10.00
2022-12-31T20:46:22.471Z,10.05
2022-12-31T20:49:12.049Z,10.09
2022-12-31T20:51:59.963Z,10.11
2022-12-31T20:54:49.845Z,10.15
2022-12-31T20:57:37.557Z,10.34
2022-12-31T21:00:26.959Z,10.40
2022-12-31T21:03:53.751Z,10.45
2022-12-31T21:06:22.840Z,10.50
2022-12-31T21:09:11.119Z,10.58
2022-12-31T21:12:16.483Z,10.62
2022-12-31T21:15:04.280Z,10.65
2022-12-31T21:17:53.757Z,10.68
2022-12-31T21:20:41.683Z,10.71
2022-12-31T21:23:29.953Z,10.73
2022-12-31T21:26:18.112Z,10.70
2022-12-31T21:29:05.904Z,10.73
2022-12-31T21:31:53.894Z,10.81
2022-12-31T21:34:43.202Z,10.85
2022-12-31T21:37:58.656Z,10.87
2022-12-31T21:40:38.811Z,10.97
2022-12-31T21:43:26.628Z,11.08
2022-12-31T21:46:14.228Z,11.20
2022-12-31T21:49:03.142Z,11.17
2022-12-31T21:52:10.108Z,11.26
2022-12-31T21:55:17.512Z,11.28
2022-12-31T22:01:35.290Z,11.27
2022-12-31T22:05:00.493Z,11.22
2022-12-31T22:07:32.622Z,11.25
2022-12-31T22:10:22.091Z,11.13
2022-12-31T22:13:09.805Z,11.08
2022-12-31T22:16:04.719Z,11.04
2022-12-31T22:18:55.842Z,11.02
2022-12-31T22:21:43.569Z,11.02
2022-12-31T22:24:33.332Z,11.00
2022-12-31T22:27:34.421Z,11.01
2022-12-31T22:31:09.829Z,10.93
2022-12-31T22:34:25.930Z,10.91
2022-12-31T22:37:46.560Z,10.90
2022-12-31T22:40:26.037Z,10.93
2022-12-31T22:43:14.026Z,10.87
2022-12-31T22:46:08.646Z,10.83
2022-12-31T22:49:00.186Z,10.76
2022-12-31T22:51:54.996Z,10.70
2022-12-31T22:54:45.268Z,10.61
2022-12-31T22:57:35.092Z,10.55
2022-12-31T23:01:29.769Z,10.50
2022-12-31T23:04:18.469Z,10.37
2022-12-31T23:07:07.439Z,10.29
2022-12-31T23:10:12.973Z,10.22
2022-12-31T23:13:16.594Z,10.16
2022-12-31T23:16:21.973Z,10.06
2022-12-31T23:19:27.818Z,9.97
2022-12-31T23:22:33.641Z,9.88
2022-12-31T23:25:21.906Z,9.78
2022-12-31T23:28:13.006Z,9.71
2022-12-31T23:31:10.191Z,9.65
2022-12-31T23:33:58.037Z,9.56
2022-12-31T23:36:46.259Z,9.48
2022-12-31T23:39:34.582Z,9.42
2022-12-31T23:42:22.474Z,9.34
2022-12-31T23:45:18.220Z,9.29
2022-12-31T23:48:06.302Z,9.22
2022-12-31T23:50:54.576Z,9.16
2022-12-31T23:53:42.244Z,9.09
2022-12-31T23:56:30.196Z,9.04
2022-12-31T23:59:19.035Z,8.99
